Time;durP1;ratioP1;P1;durP2;ratioP2;P2;SDS_P1;SDS_P2;PMS_P1;PMS_P2;Temp;Humidity;BMP_temperature;BMP_pressure;BME280_temperature;BME280_humidity;BME280_pressure;Samples;Min_cycle;Max_cycle;Signal;HPM_P1;HPM_P2
2023/03/06 00:00:46;;;;;;;21.20;13.67;;;;;;;2.80;100.00;95572.06;5028094;27;105209;-64
2023/03/06 00:03:16;;;;;;;19.13;12.67;;;;;;;2.84;100.00;95571.38;5028453;28;101941;-64
2023/03/06 00:05:43;;;;;;;23.03;13.90;;;;;;;2.87;100.00;95562.25;5028721;28;105635;-63
2023/03/06 00:08:10;;;;;;;21.83;13.63;;;;;;;2.87;100.00;95562.25;5028438;28;105435;-64
2023/03/06 00:10:39;;;;;;;20.07;13.20;;;;;;;2.85;100.00;95559.84;5028750;28;102047;-64
2023/03/06 00:13:09;;;;;;;22.73;13.77;;;;;;;2.91;100.00;95552.91;5029010;28;104161;-64
2023/03/06 00:15:36;;;;;;;20.47;13.37;;;;;;;2.86;100.00;95542.28;5031815;28;106050;-64
2023/03/06 00:18:04;;;;;;;21.80;13.77;;;;;;;2.93;100.00;95551.66;5028764;28;105460;-64
2023/03/06 00:20:34;;;;;;;24.40;14.10;;;;;;;2.93;100.00;95543.78;5030058;28;106087;-64
2023/03/06 00:23:01;;;;;;;22.07;13.70;;;;;;;2.97;100.00;95538.88;5028583;28;102111;-63
2023/03/06 00:25:28;;;;;;;23.67;14.97;;;;;;;2.94;100.00;95534.06;5028742;28;105715;-64
2023/03/06 00:27:55;;;;;;;22.73;14.60;;;;;;;3.00;100.00;95535.84;5028121;28;105608;-64
2023/03/06 00:30:26;;;;;;;21.00;13.43;;;;;;;2.96;100.00;95534.66;5029253;28;101913;-64
2023/03/06 00:32:53;;;;;;;21.03;13.83;;;;;;;2.97;100.00;95531.00;5028377;28;105422;-64
2023/03/06 00:35:20;;;;;;;21.47;14.40;;;;;;;2.92;100.00;95528.25;5028065;28;105418;-64
2023/03/06 00:37:49;;;;;;;20.40;13.53;;;;;;;2.95;100.00;95525.19;5031775;28;101973;-64
2023/03/06 00:40:18;;;;;;;21.37;14.03;;;;;;;2.95;100.00;95519.94;5027953;28;105667;-64
2023/03/06 00:42:46;;;;;;;24.07;14.83;;;;;;;2.97;100.00;95515.25;5028136;28;102053;-64
2023/03/06 00:45:15;;;;;;;22.03;13.90;;;;;;;2.93;100.00;95516.72;5028608;28;104981;-64
2023/03/06 00:47:43;;;;;;;24.53;14.57;;;;;;;2.92;100.00;95510.69;5028438;28;104366;-64
2023/03/06 00:50:11;;;;;;;23.80;15.00;;;;;;;2.92;100.00;95512.50;5028380;28;101878;-64
2023/03/06 00:52:40;;;;;;;21.00;13.97;;;;;;;2.85;100.00;95509.97;5027958;28;105376;-64
2023/03/06 00:55:11;;;;;;;22.30;13.97;;;;;;;2.93;100.00;95500.97;5027640;28;105572;-63
2023/03/06 00:57:38;;;;;;;18.97;12.57;;;;;;;2.92;100.00;95494.13;5028279;28;101935;-64
2023/03/06 01:00:08;;;;;;;20.57;13.20;;;;;;;2.85;100.00;95493.44;5031068;28;105844;-63
2023/03/06 01:02:35;;;;;;;19.00;12.30;;;;;;;2.82;100.00;95496.47;5027919;28;102058;-64
2023/03/06 01:05:02;;;;;;;22.03;12.93;;;;;;;2.80;100.00;95486.19;5028055;28;105661;-63
2023/03/06 01:07:32;;;;;;;19.07;12.67;;;;;;;2.82;100.00;95483.38;5027399;28;105117;-64
2023/03/06 01:10:00;;;;;;;21.33;13.53;;;;;;;2.78;100.00;95477.75;5027866;28;101955;-64
2023/03/06 01:12:29;;;;;;;19.87;12.77;;;;;;;2.78;100.00;95482.22;5027538;28;105485;-64
2023/03/06 01:14:57;;;;;;;22.00;13.43;;;;;;;2.71;100.00;95477.06;5027525;28;105523;-63
2023/03/06 01:17:24;;;;;;;18.10;12.93;;;;;;;2.70;100.00;95464.97;5027659;28;102054;-64
2023/03/06 01:19:52;;;;;;;22.30;13.23;;;;;;;2.71;100.00;95463.13;5027917;28;105512;-64
2023/03/06 01:22:19;;;;;;;20.67;13.70;;;;;;;2.63;100.00;95455.59;5030331;28;105914;-63
2023/03/06 01:24:46;;;;;;;22.50;13.93;;;;;;;2.63;100.00;95458.22;5027749;28;104069;-63
2023/03/06 01:27:14;;;;;;;21.50;13.33;;;;;;;2.53;100.00;95452.69;5026996;28;104309;-64
2023/03/06 01:29:45;;;;;;;20.70;13.67;;;;;;;2.56;100.00;95447.81;5027806;28;101932;-63
2023/03/06 01:32:13;;;;;;;22.90;13.07;;;;;;;2.59;100.00;95443.94;5027589;28;105534;-63
2023/03/06 01:34:42;;;;;;;19.00;13.17;;;;;;;2.55;100.00;95437.53;5027090;28;105792;-63
2023/03/06 01:37:09;;;;;;;24.53;14.30;;;;;;;2.50;100.00;95432.97;5027691;28;101869;-63
2023/03/06 01:39:37;;;;;;;23.43;13.50;;;;;;;2.55;100.00;95422.59;5027572;28;105416;-64
2023/03/06 01:42:04;;;;;;;19.83;13.37;;;;;;;2.48;100.00;95423.72;5026997;28;105886;-64
2023/03/06 01:44:31;;;;;;;22.70;13.70;;;;;;;2.43;100.00;95419.13;5030599;28;101829;-64
2023/03/06 01:47:01;;;;;;;20.30;13.27;;;;;;;2.28;100.00;95415.31;5027030;28;105883;-63
2023/03/06 01:49:32;;;;;;;21.90;13.87;;;;;;;2.40;100.00;95413.53;5027429;28;101900;-64
2023/03/06 01:52:04;;;;;;;21.63;12.87;;;;;;;2.41;100.00;95407.25;5028890;27;102762;-64
2023/03/06 01:54:36;;;;;;;22.03;13.23;;;;;;;2.51;100.00;95412.78;5028543;28;105464;-64
2023/03/06 01:57:08;;;;;;;19.43;13.30;;;;;;;2.55;100.00;95408.66;5028240;28;101961;-64
2023/03/06 01:59:38;;;;;;;23.03;13.60;;;;;;;2.52;100.00;95398.63;5028935;28;102638;-64
2023/03/06 02:02:10;;;;;;;21.30;13.60;;;;;;;2.47;100.00;95398.50;5026534;28;105723;-64
2023/03/06 02:04:39;;;;;;;21.63;12.80;;;;;;;2.38;100.00;95391.97;5027217;28;102459;-63
2023/03/06 02:07:08;;;;;;;18.87;12.50;;;;;;;2.36;100.00;95391.41;5030262;28;105222;-63
2023/03/06 02:09:38;;;;;;;20.63;13.70;;;;;;;2.33;100.00;95383.97;5027728;28;101957;-63
2023/03/06 02:12:10;;;;;;;21.07;13.20;;;;;;;2.32;100.00;95387.63;5028884;28;106434;-64
2023/03/06 02:14:38;;;;;;;18.77;12.80;;;;;;;2.29;100.00;95378.38;5027276;28;105473;-64
2023/03/06 02:17:08;;;;;;;20.73;12.73;;;;;;;2.16;100.00;95378.56;5026912;28;101833;-63
2023/03/06 02:19:46;;;;;;;19.00;12.53;;;;;;;2.22;100.00;95364.56;5027433;28;105189;-64
2023/03/06 02:22:14;;;;;;;20.93;13.00;;;;;;;2.19;100.00;95361.59;5027116;28;105640;-64
2023/03/06 02:24:48;;;;;;;20.60;12.83;;;;;;;2.18;100.00;95358.16;5027508;28;101928;-63
2023/03/06 02:27:17;;;;;;;21.37;12.43;;;;;;;2.08;100.00;95351.84;5033354;28;105278;-63
2023/03/06 02:29:45;;;;;;;21.20;13.00;;;;;;;2.11;100.00;95354.00;5032136;28;101905;-64
2023/03/06 02:32:12;;;;;;;19.83;12.50;;;;;;;1.96;100.00;95343.94;5030515;28;105377;-64
2023/03/06 02:35:00;;;;;;;20.37;12.77;;;;;;;1.88;100.00;95343.44;5029931;28;105553;-64
2023/03/06 02:37:29;;;;;;;20.00;12.53;;;;;;;1.77;100.00;95338.97;5030439;28;101816;-64
2023/03/06 02:40:11;;;;;;;20.97;13.47;;;;;;;1.72;100.00;95338.81;5030100;28;105678;-64
2023/03/06 02:42:46;;;;;;;22.17;13.97;;;;;;;1.63;100.00;95329.66;5029827;28;105598;-63
2023/03/06 02:45:17;;;;;;;22.27;14.07;;;;;;;1.73;100.00;95336.00;5030052;28;101848;-64
2023/03/06 02:47:44;;;;;;;25.97;14.27;;;;;;;1.70;100.00;95333.00;5030195;28;106217;-63
2023/03/06 02:50:12;;;;;;;21.30;13.77;;;;;;;1.74;100.00;95327.09;5037406;28;106545;-63
2023/03/06 02:52:39;;;;;;;19.90;13.47;;;;;;;1.69;100.00;95328.81;5032914;28;105278;-64
2023/03/06 02:55:08;;;;;;;19.87;12.77;;;;;;;1.74;100.00;95318.44;5032858;28;105400;-64
2023/03/06 02:57:37;;;;;;;20.10;13.87;;;;;;;1.80;100.00;95320.97;5032305;28;102036;-64
2023/03/06 03:00:09;;;;;;;22.17;13.80;;;;;;;1.83;100.00;95317.09;5029806;28;105393;-64
2023/03/06 03:02:36;;;;;;;21.17;13.17;;;;;;;1.87;100.00;95316.44;5029156;28;105336;-64
2023/03/06 03:05:05;;;;;;;20.57;12.87;;;;;;;1.85;100.00;95310.63;5030174;28;101927;-63
2023/03/06 03:07:33;;;;;;;19.43;12.43;;;;;;;1.81;100.00;95311.28;5033242;28;105196;-64
2023/03/06 03:10:01;;;;;;;20.80;13.27;;;;;;;1.72;100.00;95299.50;5049831;27;104578;-64
2023/03/06 03:12:29;;;;;;;22.43;14.33;;;;;;;1.73;100.00;95304.53;5033203;28;101936;-64
2023/03/06 03:14:56;;;;;;;22.60;13.70;;;;;;;1.76;100.00;95306.69;5030253;28;105653;-64
2023/03/06 03:17:25;;;;;;;21.13;12.60;;;;;;;1.73;100.00;95301.09;5031767;28;102008;-64
2023/03/06 03:19:53;;;;;;;20.93;13.07;;;;;;;1.74;100.00;95303.50;5029883;28;104139;-64
2023/03/06 03:22:20;;;;;;;20.13;12.53;;;;;;;1.74;100.00;95295.66;5028863;28;105672;-63
2023/03/06 03:24:48;;;;;;;20.73;13.23;;;;;;;1.73;100.00;95293.25;5031085;28;101841;-64
2023/03/06 03:27:15;;;;;;;22.27;13.80;;;;;;;1.70;100.00;95291.88;5030957;28;105832;-64
2023/03/06 03:29:42;;;;;;;20.77;12.87;;;;;;;1.60;100.00;95288.97;5028943;28;105915;-64
2023/03/06 03:32:10;;;;;;;22.17;12.77;;;;;;;1.63;100.00;95295.59;5030909;28;101954;-64
2023/03/06 03:34:39;;;;;;;21.63;13.40;;;;;;;1.62;100.00;95291.38;5033595;28;105228;-63
2023/03/06 03:37:07;;;;;;;21.40;13.17;;;;;;;1.61;100.00;95284.56;5032042;28;101859;-64
2023/03/06 03:39:38;;;;;;;21.23;13.57;;;;;;;1.56;100.00;95282.59;5030944;28;105317;-64
2023/03/06 03:42:07;;;;;;;18.73;12.27;;;;;;;1.56;100.00;95277.38;5029793;28;105457;-63
2023/03/06 03:44:34;;;;;;;18.80;12.13;;;;;;;1.50;100.00;95283.50;5031456;28;101959;-63
2023/03/06 03:47:03;;;;;;;24.03;13.87;;;;;;;1.54;100.00;95278.59;5031324;28;106019;-64
2023/03/06 03:49:31;;;;;;;24.03;14.53;;;;;;;1.41;100.00;95278.75;5028689;28;105510;-63
2023/03/06 03:52:01;;;;;;;22.00;14.23;;;;;;;1.47;100.00;95275.25;5029202;28;102346;-63
2023/03/06 03:54:32;;;;;;;24.90;14.50;;;;;;;1.51;100.00;95273.78;5029222;28;105568;-63
2023/03/06 03:56:59;;;;;;;25.07;14.13;;;;;;;1.39;100.00;95267.72;5031885;28;105899;-64
2023/03/06 03:59:32;;;;;;;23.63;14.37;;;;;;;1.34;100.00;95271.00;5029500;28;105319;-63
2023/03/06 04:02:22;;;;;;;23.57;14.13;;;;;;;1.38;100.00;95264.28;5028268;28;105496;-63
2023/03/06 04:05:15;;;;;;;22.73;13.77;;;;;;;1.39;100.00;95265.91;5029027;28;101911;-64
2023/03/06 04:07:44;;;;;;;24.20;14.20;;;;;;;1.42;100.00;95267.28;5029046;28;105688;-64
2023/03/06 04:10:13;;;;;;;24.13;15.33;;;;;;;1.32;100.00;95257.31;5028433;28;105371;-63
2023/03/06 04:12:40;;;;;;;25.37;14.57;;;;;;;1.34;100.00;95262.34;5028605;28;102047;-63
2023/03/06 04:15:11;;;;;;;41.77;25.67;;;;;;;1.29;100.00;95262.19;5028916;28;105415;-63
2023/03/06 04:17:39;;;;;;;25.57;15.07;;;;;;;1.12;100.00;95269.06;5028410;28;105620;-63
2023/03/06 04:20:11;;;;;;;23.53;14.47;;;;;;;1.22;100.00;95264.09;5032304;28;102139;-63
2023/03/06 04:22:39;;;;;;;26.33;16.30;;;;;;;1.24;100.00;95254.19;5030514;28;105634;-64
2023/03/06 04:25:10;;;;;;;24.93;15.40;;;;;;;1.32;100.00;95259.94;5031719;28;101808;-64
2023/03/06 04:27:39;;;;;;;24.33;15.53;;;;;;;1.18;100.00;95270.78;5032725;28;105402;-64
2023/03/06 04:30:08;;;;;;;23.90;15.53;;;;;;;1.04;100.00;95267.53;5028788;28;105513;-64
2023/03/06 04:32:36;;;;;;;26.77;14.77;;;;;;;1.10;100.00;95260.63;5028586;28;101835;-63
2023/03/06 04:35:05;;;;;;;25.00;14.87;;;;;;;1.29;100.00;95251.72;5028313;28;105648;-63
2023/03/06 04:37:38;;;;;;;25.40;14.73;;;;;;;1.38;100.00;95263.50;5028492;28;104787;-63
2023/03/06 04:40:08;;;;;;;29.03;15.97;;;;;;;1.13;100.00;95279.31;5032361;28;101717;-63
2023/03/06 04:42:37;;;;;;;27.63;15.47;;;;;;;0.96;100.00;95278.28;5029413;28;105683;-64
2023/03/06 04:45:05;;;;;;;29.67;16.87;;;;;;;0.96;100.00;95261.78;5027571;28;103214;-64
2023/03/06 04:47:33;;;;;;;27.13;16.23;;;;;;;1.01;100.00;95260.13;5027794;27;105444;-64
2023/03/06 04:50:00;;;;;;;25.93;15.53;;;;;;;1.17;100.00;95256.09;5030505;28;103003;-63
2023/03/06 04:52:28;;;;;;;27.00;16.37;;;;;;;1.06;100.00;95264.69;5028156;28;101903;-64
2023/03/06 04:54:55;;;;;;;26.47;15.63;;;;;;;0.90;100.00;95255.63;5028262;28;105267;-63
2023/03/06 04:57:22;;;;;;;26.63;15.33;;;;;;;0.93;100.00;95238.69;5029360;28;105867;-64
2023/03/06 04:59:51;;;;;;;27.23;16.10;;;;;;;1.02;100.00;95240.78;5029883;28;101819;-63
2023/03/06 05:02:18;;;;;;;28.30;16.20;;;;;;;0.99;100.00;95245.66;5030876;28;105849;-64
2023/03/06 05:04:46;;;;;;;31.63;17.03;;;;;;;1.04;100.00;95254.44;5028762;28;101887;-64
2023/03/06 05:07:13;;;;;;;32.27;17.03;;;;;;;1.07;100.00;95253.19;5029656;28;105237;-63
2023/03/06 05:09:41;;;;;;;28.03;16.97;;;;;;;1.12;100.00;95245.50;5028935;28;103026;-64
2023/03/06 05:12:09;;;;;;;27.50;18.23;;;;;;;1.13;100.00;95247.09;5028077;28;102060;-63
2023/03/06 05:14:36;;;;;;;28.57;16.90;;;;;;;1.23;100.00;95242.13;5027775;28;105446;-64
2023/03/06 05:17:05;;;;;;;25.47;15.63;;;;;;;1.26;100.00;95254.78;5027366;28;105575;-64
2023/03/06 05:19:33;;;;;;;28.57;17.47;;;;;;;1.03;100.00;95254.66;5027995;28;102163;-63
2023/03/06 05:22:00;;;;;;;29.17;18.00;;;;;;;1.06;100.00;95241.13;5027718;28;106047;-64
2023/03/06 05:24:29;;;;;;;27.73;17.10;;;;;;;1.08;100.00;95247.75;5030685;28;105672;-64
2023/03/06 05:26:56;;;;;;;28.03;16.33;;;;;;;1.10;100.00;95252.78;5027795;28;105624;-64
2023/03/06 05:29:23;;;;;;;28.20;16.67;;;;;;;0.95;100.00;95262.81;5027825;28;105868;-64
2023/03/06 05:31:50;;;;;;;27.70;16.83;;;;;;;0.91;100.00;95259.84;5029326;27;102158;-63
2023/03/06 05:34:19;;;;;;;25.83;15.93;;;;;;;0.96;100.00;95259.16;5030149;28;105231;-64
2023/03/06 05:36:47;;;;;;;28.80;16.30;;;;;;;0.68;100.00;95262.28;5031472;28;105719;-64
2023/03/06 05:39:15;;;;;;;30.63;17.07;;;;;;;0.83;100.00;95259.31;5032131;28;101831;-64
2023/03/06 05:41:43;;;;;;;35.50;20.03;;;;;;;0.86;100.00;95261.47;5029416;28;105404;-64
2023/03/06 05:44:11;;;;;;;32.33;18.57;;;;;;;0.97;100.00;95260.75;5030097;28;106019;-64
2023/03/06 05:46:39;;;;;;;26.40;16.53;;;;;;;1.03;100.00;95265.94;5031768;28;101725;-64
2023/03/06 05:49:06;;;;;;;30.37;18.87;;;;;;;0.91;100.00;95261.63;5027410;28;105725;-64
2023/03/06 05:51:35;;;;;;;32.20;17.77;;;;;;;0.72;100.00;95262.66;5027032;28;102004;-64
2023/03/06 05:54:03;;;;;;;34.17;18.13;;;;;;;0.76;100.00;95266.41;5027233;28;105309;-64
2023/03/06 05:56:31;;;;;;;33.87;18.17;;;;;;;0.75;100.00;95260.41;5026863;28;105738;-64
2023/03/06 05:58:58;;;;;;;32.07;17.63;;;;;;;0.82;100.00;95257.72;5027350;27;101893;-64
2023/03/06 06:01:27;;;;;;;27.07;16.67;;;;;;;0.95;100.00;95257.56;5031463;27;102977;-64
2023/03/06 06:03:54;;;;;;;32.87;17.80;;;;;;;0.97;100.00;95255.53;5030171;28;105954;-63
2023/03/06 06:06:21;;;;;;;29.53;18.10;;;;;;;1.01;100.00;95256.69;5031020;28;101897;-64
2023/03/06 06:08:50;;;;;;;34.33;19.33;;;;;;;0.99;100.00;95256.13;5035194;27;102278;-64
2023/03/06 06:11:19;;;;;;;31.70;17.30;;;;;;;1.05;100.00;95257.88;5030873;28;102027;-64
2023/03/06 06:13:48;;;;;;;29.83;17.73;;;;;;;1.17;100.00;95256.09;5032178;27;102121;-64
2023/03/06 06:16:16;;;;;;;31.33;18.30;;;;;;;1.22;100.00;95253.63;5031480;28;103097;-64
2023/03/06 06:18:43;;;;;;;32.17;18.97;;;;;;;1.23;100.00;95253.41;5030199;28;101898;-64
2023/03/06 06:21:13;;;;;;;32.63;18.07;;;;;;;1.41;100.00;95257.81;5030719;28;105437;-64
2023/03/06 06:23:43;;;;;;;32.23;18.63;;;;;;;1.36;100.00;95255.03;5029935;28;105624;-64
2023/03/06 06:26:16;;;;;;;31.33;18.87;;;;;;;1.45;100.00;95254.53;5030058;28;102012;-64
2023/03/06 06:28:49;;;;;;;30.87;18.13;;;;;;;1.39;100.00;95255.44;5027045;28;105473;-64
2023/03/06 06:31:17;;;;;;;29.50;17.70;;;;;;;1.42;100.00;95260.22;5012749;28;102077;-64
2023/03/06 06:33:44;;;;;;;29.17;18.40;;;;;;;1.56;100.00;95253.78;5009374;28;105641;-64
2023/03/06 06:36:17;;;;;;;33.20;19.00;;;;;;;1.74;100.00;95250.28;5017015;28;105471;-64
2023/03/06 06:38:44;;;;;;;30.90;18.87;;;;;;;1.85;100.00;95249.53;5026459;28;102386;-64
2023/03/06 06:41:11;;;;;;;33.67;18.27;;;;;;;1.93;100.00;95257.09;5029187;28;105559;-64
2023/03/06 06:43:40;;;;;;;33.00;19.13;;;;;;;1.89;100.00;95248.88;5029302;28;105492;-64
2023/03/06 06:46:08;;;;;;;33.67;20.27;;;;;;;1.87;100.00;95253.53;5030014;28;102317;-64
2023/03/06 06:48:36;;;;;;;32.03;19.07;;;;;;;1.89;100.00;95254.13;5029384;28;105144;-64
2023/03/06 06:51:04;;;;;;;31.83;19.07;;;;;;;1.84;100.00;95248.75;5032149;28;105774;-64
2023/03/06 06:53:31;;;;;;;30.67;18.77;;;;;;;1.85;100.00;95249.53;5026563;28;105406;-64
2023/03/06 06:55:59;;;;;;;32.57;20.03;;;;;;;1.91;100.00;95254.69;5009414;28;105885;-64
2023/03/06 06:58:27;;;;;;;31.40;18.20;;;;;;;2.03;100.00;95246.84;5024543;28;101872;-64
2023/03/06 07:00:56;;;;;;;30.20;17.73;;;;;;;1.91;100.00;95259.94;5011508;28;102877;-64
2023/03/06 07:03:24;;;;;;;32.00;18.03;;;;;;;1.97;100.00;95256.41;5026704;28;104625;-64
2023/03/06 07:05:55;;;;;;;32.73;18.90;;;;;;;1.70;100.00;95262.28;5031235;28;101896;-64
2023/03/06 07:08:22;;;;;;;33.13;18.20;;;;;;;1.54;100.00;95262.88;5029842;28;105435;-64
2023/03/06 07:10:50;;;;;;;39.07;18.70;;;;;;;1.53;100.00;95262.06;5025181;27;105610;-64
2023/03/06 07:13:17;;;;;;;30.47;17.37;;;;;;;1.78;100.00;95259.31;5023048;28;101964;-64
2023/03/06 07:15:44;;;;;;;31.50;17.60;;;;;;;1.81;100.00;95266.75;5023412;28;105877;-64
2023/03/06 07:18:14;;;;;;;30.67;18.10;;;;;;;1.81;100.00;95258.88;5025829;28;101998;-64
2023/03/06 07:20:41;;;;;;;30.60;19.20;;;;;;;2.09;100.00;95261.69;5042730;27;105259;-64
2023/03/06 07:23:12;;;;;;;31.43;18.73;;;;;;;2.14;100.00;95261.81;5008719;28;105594;-64
2023/03/06 07:25:39;;;;;;;32.63;18.67;;;;;;;2.11;100.00;95270.13;5024562;28;102379;-65
2023/03/06 07:28:07;;;;;;;33.03;19.13;;;;;;;2.18;100.00;95268.22;5029535;28;104831;-69
2023/03/06 07:30:34;;;;;;;26.13;17.03;;;;;;;2.23;100.00;95265.69;5028364;28;105432;-63
2023/03/06 07:33:10;;;;;;;28.27;19.03;;;;;;;2.26;100.00;95273.94;5029422;28;102002;-65
2023/03/06 07:35:39;;;;;;;33.00;17.80;;;;;;;2.11;100.00;95272.72;5014185;28;102419;-64
2023/03/06 07:38:05;;;;;;;30.27;18.50;;;;;;;2.30;100.00;95284.75;5043217;27;102160;-61
2023/03/06 07:40:32;;;;;;;33.07;18.27;;;;;;;2.34;100.00;95276.19;5018333;28;104931;-62
2023/03/06 07:43:01;;;;;;;32.10;18.57;;;;;;;2.10;100.00;95273.75;5009120;28;103645;-62
2023/03/06 07:45:36;;;;;;;31.60;18.07;;;;;;;2.07;100.00;95267.16;5021545;28;101925;-62
2023/03/06 07:48:04;;;;;;;32.30;18.50;;;;;;;2.13;100.00;95274.09;5030120;27;105408;-62
2023/03/06 07:50:34;;;;;;;32.80;19.13;;;;;;;2.10;100.00;95279.00;5025132;28;105691;-64
2023/03/06 07:53:03;;;;;;;35.23;18.47;;;;;;;2.33;100.00;95276.41;5024999;28;101985;-65
2023/03/06 07:55:30;;;;;;;31.87;17.80;;;;;;;2.50;100.00;95282.59;5030663;28;102534;-67
2023/03/06 07:57:57;;;;;;;34.63;19.07;;;;;;;2.42;100.00;95278.50;5032376;28;105917;-66
2023/03/06 08:00:25;;;;;;;30.20;18.73;;;;;;;2.48;100.00;95284.66;5029497;28;104940;-66
2023/03/06 08:03:28;;;;;;;31.63;19.43;;;;;;;2.71;100.00;95279.41;5029135;28;105627;-64
2023/03/06 08:06:04;;;;;;;33.10;18.87;;;;;;;2.65;100.00;95285.56;5013831;28;101832;-65
2023/03/06 08:08:33;;;;;;;34.37;18.03;;;;;;;2.66;100.00;95285.34;5029213;28;105174;-65
2023/03/06 08:11:00;;;;;;;35.03;18.10;;;;;;;2.67;100.00;95291.41;5029866;27;102846;-63
2023/03/06 08:14:00;;;;;;;30.80;18.93;;;;;;;2.75;100.00;95288.44;5027303;28;102072;-62
2023/03/06 08:16:29;;;;;;;29.97;19.20;;;;;;;2.88;100.00;95288.19;5025808;28;105503;-62
2023/03/06 08:18:57;;;;;;;32.70;18.13;;;;;;;3.16;100.00;95280.41;5021486;28;102766;-61
2023/03/06 08:21:34;;;;;;;34.40;19.47;;;;;;;3.19;100.00;95288.63;5029904;28;101978;-62
2023/03/06 08:24:04;;;;;;;31.80;18.80;;;;;;;3.41;100.00;95278.28;5027464;28;104694;-62
2023/03/06 08:26:32;;;;;;;36.33;19.00;;;;;;;3.61;100.00;95291.84;5028827;28;101928;-61
2023/03/06 08:29:01;;;;;;;33.80;19.17;;;;;;;3.55;100.00;95284.88;5028809;28;104571;-62
2023/03/06 08:31:34;;;;;;;30.07;17.50;;;;;;;3.53;100.00;95281.66;5028290;28;105114;-62
2023/03/06 08:34:18;;;;;;;29.93;17.70;;;;;;;3.50;100.00;95280.31;5027334;28;102101;-62
2023/03/06 08:36:46;;;;;;;28.23;17.23;;;;;;;3.60;100.00;95287.59;5012122;28;104247;-60
2023/03/06 08:39:14;;;;;;;26.63;16.03;;;;;;;3.51;100.00;95283.75;5029341;27;103022;-60
2023/03/06 08:41:42;;;;;;;28.07;16.30;;;;;;;3.75;100.00;95283.44;5032329;28;101937;-60
2023/03/06 08:44:09;;;;;;;27.93;17.23;;;;;;;3.73;100.00;95285.50;5025213;28;102548;-60
2023/03/06 08:46:36;;;;;;;27.67;16.50;;;;;;;3.83;100.00;95284.88;5052271;27;102180;-60
2023/03/06 08:49:04;;;;;;;28.67;16.20;;;;;;;3.87;100.00;95283.41;5030195;28;102610;-60
2023/03/06 08:51:31;;;;;;;27.30;16.40;;;;;;;3.71;100.00;95281.50;5029312;28;103226;-60
2023/03/06 08:54:02;;;;;;;30.97;16.07;;;;;;;3.71;100.00;95279.66;5028451;28;101852;-60
2023/03/06 08:59:23;;;;;;;24.73;15.27;;;;;;;3.90;100.00;95282.91;5017383;28;102962;-60
2023/03/06 09:01:50;;;;;;;26.53;16.37;;;;;;;3.88;100.00;95290.25;5029782;28;101842;-60
2023/03/06 09:04:22;;;;;;;26.57;15.03;;;;;;;3.95;100.00;95291.69;5032728;28;102866;-60
2023/03/06 09:06:49;;;;;;;24.57;15.13;;;;;;;4.09;100.00;95292.22;5030053;28;101831;-60
2023/03/06 09:09:17;;;;;;;27.43;15.70;;;;;;;4.06;100.00;95290.03;5028428;28;104336;-60
2023/03/06 09:11:46;;;;;;;25.23;15.33;;;;;;;4.20;100.00;95291.34;5029432;27;102513;-60
2023/03/06 09:14:13;;;;;;;21.37;14.60;;;;;;;4.41;100.00;95290.63;5028204;28;102184;-60
2023/03/06 09:16:40;;;;;;;23.67;14.23;;;;;;;4.36;100.00;95285.31;5028366;28;105255;-60
2023/03/06 09:19:07;;;;;;;25.30;15.43;;;;;;;4.87;100.00;95290.31;5029327;28;102490;-60
2023/03/06 09:21:34;;;;;;;24.00;15.47;;;;;;;5.02;100.00;95290.53;5028192;28;101863;-60
2023/03/06 09:24:08;;;;;;;29.13;16.13;;;;;;;5.12;100.00;95295.94;5029520;27;102385;-60
2023/03/06 09:26:36;;;;;;;27.00;15.17;;;;;;;5.06;100.00;95291.63;5032617;28;102700;-60
2023/03/06 09:29:04;;;;;;;23.23;12.90;;;;;;;5.31;100.00;95290.16;5029136;27;102518;-63
2023/03/06 09:31:31;;;;;;;22.00;13.80;;;;;;;4.94;100.00;95290.94;5025829;27;103022;-61
2023/03/06 09:34:13;;;;;;;24.93;14.80;;;;;;;5.39;100.00;95288.91;5024714;28;102261;-64
2023/03/06 09:36:40;;;;;;;24.63;15.00;;;;;;;5.44;100.00;95284.50;5025141;28;105403;-62
2023/03/06 09:39:19;;;;;;;27.17;14.60;;;;;;;5.53;100.00;95283.03;5023742;28;105484;-63
2023/03/06 09:41:50;;;;;;;25.40;14.83;;;;;;;5.49;100.00;95287.19;5022160;28;102179;-67
2023/03/06 09:44:21;;;;;;;25.37;14.83;;;;;;;5.50;100.00;95280.06;5022441;28;105120;-64
2023/03/06 09:47:04;;;;;;;25.57;15.17;;;;;;;5.39;100.00;95283.63;5023483;28;105341;-61
2023/03/06 09:50:12;;;;;;;28.83;16.00;;;;;;;5.67;100.00;95278.19;5028604;28;102069;-70
2023/03/06 09:55:38;;;;;;;24.53;15.13;;;;;;;5.49;100.00;95278.47;5012823;28;102158;-59
2023/03/06 09:58:16;;;;;;;23.73;14.70;;;;;;;5.42;100.00;95281.31;5024419;28;105890;-67
2023/03/06 10:00:57;;;;;;;22.97;15.20;;;;;;;5.53;100.00;95279.59;5024332;28;105862;-67
2023/03/06 10:03:51;;;;;;;22.27;14.60;;;;;;;5.49;100.00;95286.41;5034122;27;102211;-66
2023/03/06 10:06:25;;;;;;;24.17;14.93;;;;;;;5.25;100.00;95287.69;5033626;27;104296;-58
2023/03/06 10:09:01;;;;;;;25.30;14.97;;;;;;;5.23;100.00;95289.78;5029209;27;104039;-58
2023/03/06 10:11:35;;;;;;;23.07;15.20;;;;;;;5.20;100.00;95280.50;5024744;28;102125;-62
2023/03/06 10:14:31;;;;;;;22.90;14.83;;;;;;;5.08;100.00;95282.44;5028952;28;102819;-60
2023/03/06 10:17:00;;;;;;;22.83;14.47;;;;;;;5.36;100.00;95287.53;5016575;28;102354;-60
2023/03/06 10:19:34;;;;;;;21.90;14.13;;;;;;;5.43;100.00;95284.75;5028732;27;105252;-61
2023/03/06 10:22:06;;;;;;;23.27;14.37;;;;;;;5.30;100.00;95285.88;5031061;27;105922;-62
2023/03/06 10:24:54;;;;;;;22.20;13.20;;;;;;;5.46;100.00;95271.09;5020388;28;102547;-61
2023/03/06 10:27:34;;;;;;;20.40;13.20;;;;;;;5.66;100.00;95271.31;5020630;28;105655;-59
2023/03/06 10:30:13;;;;;;;21.10;12.63;;;;;;;5.48;100.00;95272.44;5055137;27;105382;-63
2023/03/06 10:32:54;;;;;;;20.73;12.70;;;;;;;5.29;100.00;95272.97;5024982;27;102064;-58
2023/03/06 10:35:27;;;;;;;22.60;12.33;;;;;;;5.25;100.00;95275.28;5022116;28;105261;-60
2023/03/06 10:38:00;;;;;;;19.73;13.00;;;;;;;5.42;100.00;95272.59;5026002;28;102711;-59
2023/03/06 10:40:48;;;;;;;19.80;12.37;;;;;;;5.22;100.00;95277.63;5025517;28;105360;-64
2023/03/06 10:43:22;;;;;;;18.93;11.57;;;;;;;5.11;100.00;95268.78;5026114;28;105611;-60
2023/03/06 10:45:51;;;;;;;18.80;11.73;;;;;;;5.24;100.00;95268.41;5023606;27;102090;-59
2023/03/06 10:48:24;;;;;;;18.63;11.50;;;;;;;5.29;100.00;95265.06;5030260;28;102635;-58
2023/03/06 10:50:53;;;;;;;18.00;10.57;;;;;;;5.23;100.00;95266.06;5029501;28;105468;-59
2023/03/06 10:53:49;;;;;;;16.17;10.33;;;;;;;5.25;100.00;95266.59;5029993;28;101788;-61
2023/03/06 10:56:27;;;;;;;14.97;10.17;;;;;;;5.26;100.00;95265.56;5029964;28;104981;-60
2023/03/06 10:59:12;;;;;;;13.23;9.33;;;;;;;4.99;100.00;95269.94;5034604;28;102694;-59
2023/03/06 11:01:39;;;;;;;14.50;9.57;;;;;;;5.00;100.00;95263.63;5029520;28;105302;-59
2023/03/06 11:04:45;;;;;;;13.57;8.50;;;;;;;5.01;100.00;95259.94;5030402;28;103804;-59
2023/03/06 11:07:18;;;;;;;14.43;9.33;;;;;;;5.11;100.00;95254.81;5030829;28;102147;-59
2023/03/06 11:09:58;;;;;;;13.93;9.37;;;;;;;5.28;100.00;95247.63;5030830;28;105432;-59
2023/03/06 11:12:27;;;;;;;15.03;9.30;;;;;;;5.18;100.00;95250.97;5031394;28;103161;-59
2023/03/06 11:15:17;;;;;;;12.27;8.97;;;;;;;5.13;100.00;95253.53;5032207;27;101889;-59
2023/03/06 11:17:58;;;;;;;13.40;8.70;;;;;;;5.29;100.00;95249.25;5032220;27;102260;-59
2023/03/06 11:20:28;;;;;;;13.07;8.33;;;;;;;5.21;100.00;95250.47;5029844;28;104301;-59
2023/03/06 11:23:07;;;;;;;15.33;9.03;;;;;;;5.26;100.00;95247.09;5035383;27;102043;-59
2023/03/06 11:25:37;;;;;;;17.67;10.40;;;;;;;5.16;100.00;95252.25;5026647;28;105238;-59
2023/03/06 11:28:13;;;;;;;12.87;8.80;;;;;;;5.16;100.00;95239.06;5027282;28;101833;-59
2023/03/06 11:30:44;;;;;;;15.20;9.37;;;;;;;5.29;100.00;95241.34;5027386;28;103845;-59